sensor_id;sensor_type;location;lat;lon;timestamp;P1;durP1;ratioP1;P2;durP2;ratioP2
1531;SDS011;759;53.170;8.210;2022-08-19T00:02:02;7.20;;;6.20;;
1531;SDS011;759;53.170;8.210;2022-08-19T00:04:29;12.87;;;6.70;;
1531;SDS011;759;53.170;8.210;2022-08-19T00:07:00;9.57;;;6.80;;
1531;SDS011;759;53.170;8.210;2022-08-19T00:09:29;10.50;;;7.30;;
1531;SDS011;759;53.170;8.210;2022-08-19T00:11:55;8.97;;;7.70;;
1531;SDS011;759;53.170;8.210;2022-08-19T00:14:23;8.10;;;7.30;;
1531;SDS011;759;53.170;8.210;2022-08-19T00:16:49;11.50;;;8.67;;
1531;SDS011;759;53.170;8.210;2022-08-19T00:19:19;11.23;;;7.57;;
1531;SDS011;759;53.170;8.210;2022-08-19T00:21:47;9.30;;;8.37;;
1531;SDS011;759;53.170;8.210;2022-08-19T00:24:13;13.50;;;7.37;;
1531;SDS011;759;53.170;8.210;2022-08-19T00:26:40;8.00;;;7.10;;
1531;SDS011;759;53.170;8.210;2022-08-19T00:29:08;8.23;;;7.37;;
1531;SDS011;759;53.170;8.210;2022-08-19T00:31:42;10.67;;;8.70;;
1531;SDS011;759;53.170;8.210;2022-08-19T00:34:08;11.90;;;7.63;;
1531;SDS011;759;53.170;8.210;2022-08-19T00:36:39;11.50;;;7.90;;
1531;SDS011;759;53.170;8.210;2022-08-19T00:39:08;13.60;;;7.30;;
1531;SDS011;759;53.170;8.210;2022-08-19T00:41:38;8.50;;;7.20;;
1531;SDS011;759;53.170;8.210;2022-08-19T00:44:06;10.43;;;6.80;;
1531;SDS011;759;53.170;8.210;2022-08-19T00:46:43;8.55;;;6.65;;
1531;SDS011;759;53.170;8.210;2022-08-19T00:49:15;7.80;;;7.00;;
1531;SDS011;759;53.170;8.210;2022-08-19T00:51:48;9.70;;;7.87;;
1531;SDS011;759;53.170;8.210;2022-08-19T00:54:18;10.40;;;7.10;;
1531;SDS011;759;53.170;8.210;2022-08-19T00:56:44;9.97;;;7.80;;
1531;SDS011;759;53.170;8.210;2022-08-19T00:59:10;9.70;;;8.37;;
1531;SDS011;759;53.170;8.210;2022-08-19T01:01:36;9.25;;;7.55;;
1531;SDS011;759;53.170;8.210;2022-08-19T01:04:07;8.90;;;7.10;;
1531;SDS011;759;53.170;8.210;2022-08-19T01:06:32;14.20;;;7.37;;
1531;SDS011;759;53.170;8.210;2022-08-19T01:09:00;9.37;;;7.83;;
1531;SDS011;759;53.170;8.210;2022-08-19T01:11:28;7.60;;;6.90;;
1531;SDS011;759;53.170;8.210;2022-08-19T01:13:57;16.13;;;7.40;;
1531;SDS011;759;53.170;8.210;2022-08-19T01:16:24;35.00;;;17.30;;
1531;SDS011;759;53.170;8.210;2022-08-19T01:18:51;395.83;;;126.87;;
1531;SDS011;759;53.170;8.210;2022-08-19T01:21:35;581.53;;;199.97;;
1531;SDS011;759;53.170;8.210;2022-08-19T01:24:05;549.87;;;185.97;;
1531;SDS011;759;53.170;8.210;2022-08-19T01:26:31;373.50;;;125.15;;
1531;SDS011;759;53.170;8.210;2022-08-19T01:29:04;416.30;;;136.43;;
1531;SDS011;759;53.170;8.210;2022-08-19T01:31:33;614.23;;;208.40;;
1531;SDS011;759;53.170;8.210;2022-08-19T01:34:00;623.03;;;213.30;;
1531;SDS011;759;53.170;8.210;2022-08-19T01:38:57;577.33;;;189.17;;
1531;SDS011;759;53.170;8.210;2022-08-19T01:41:23;515.05;;;174.70;;
1531;SDS011;759;53.170;8.210;2022-08-19T01:43:49;513.50;;;166.73;;
1531;SDS011;759;53.170;8.210;2022-08-19T01:46:16;437.47;;;141.37;;
1531;SDS011;759;53.170;8.210;2022-08-19T01:48:42;407.83;;;137.17;;
1531;SDS011;759;53.170;8.210;2022-08-19T01:51:09;382.20;;;124.00;;
1531;SDS011;759;53.170;8.210;2022-08-19T01:53:36;349.20;;;118.80;;
1531;SDS011;759;53.170;8.210;2022-08-19T01:56:02;386.00;;;128.27;;
1531;SDS011;759;53.170;8.210;2022-08-19T01:58:34;398.33;;;128.87;;
1531;SDS011;759;53.170;8.210;2022-08-19T02:01:03;372.03;;;129.17;;
1531;SDS011;759;53.170;8.210;2022-08-19T02:03:29;389.20;;;129.63;;
1531;SDS011;759;53.170;8.210;2022-08-19T02:05:56;378.05;;;126.15;;
1531;SDS011;759;53.170;8.210;2022-08-19T02:08:24;359.53;;;124.00;;
1531;SDS011;759;53.170;8.210;2022-08-19T02:10:51;415.40;;;133.30;;
1531;SDS011;759;53.170;8.210;2022-08-19T02:13:17;376.73;;;127.90;;
1531;SDS011;759;53.170;8.210;2022-08-19T02:15:43;427.20;;;132.73;;
1531;SDS011;759;53.170;8.210;2022-08-19T02:18:08;392.87;;;125.40;;
1531;SDS011;759;53.170;8.210;2022-08-19T02:20:35;331.13;;;112.83;;
1531;SDS011;759;53.170;8.210;2022-08-19T02:23:00;278.30;;;92.95;;
1531;SDS011;759;53.170;8.210;2022-08-19T02:25:26;229.60;;;86.27;;
1531;SDS011;759;53.170;8.210;2022-08-19T02:27:52;255.60;;;84.40;;
1531;SDS011;759;53.170;8.210;2022-08-19T02:30:19;220.35;;;78.65;;
1531;SDS011;759;53.170;8.210;2022-08-19T02:32:45;238.87;;;82.23;;
1531;SDS011;759;53.170;8.210;2022-08-19T02:35:11;195.47;;;70.77;;
1531;SDS011;759;53.170;8.210;2022-08-19T02:37:38;178.10;;;70.47;;
1531;SDS011;759;53.170;8.210;2022-08-19T02:40:22;112.80;;;40.60;;
1531;SDS011;759;53.170;8.210;2022-08-19T02:42:48;111.93;;;44.43;;
1531;SDS011;759;53.170;8.210;2022-08-19T02:45:14;105.93;;;42.17;;
1531;SDS011;759;53.170;8.210;2022-08-19T02:47:41;140.00;;;49.90;;
1531;SDS011;759;53.170;8.210;2022-08-19T02:50:07;201.17;;;74.73;;
1531;SDS011;759;53.170;8.210;2022-08-19T02:52:34;254.20;;;88.60;;
1531;SDS011;759;53.170;8.210;2022-08-19T02:55:00;262.83;;;90.97;;
1531;SDS011;759;53.170;8.210;2022-08-19T02:57:26;259.63;;;96.27;;
1531;SDS011;759;53.170;8.210;2022-08-19T02:59:51;266.50;;;93.53;;
1531;SDS011;759;53.170;8.210;2022-08-19T03:02:17;177.93;;;66.00;;
1531;SDS011;759;53.170;8.210;2022-08-19T03:04:42;173.73;;;64.50;;
1531;SDS011;759;53.170;8.210;2022-08-19T03:07:08;190.10;;;65.95;;
1531;SDS011;759;53.170;8.210;2022-08-19T03:09:38;284.80;;;99.57;;
1531;SDS011;759;53.170;8.210;2022-08-19T03:12:04;343.23;;;107.40;;
1531;SDS011;759;53.170;8.210;2022-08-19T03:14:31;465.15;;;133.70;;
1531;SDS011;759;53.170;8.210;2022-08-19T03:16:57;472.40;;;143.53;;
1531;SDS011;759;53.170;8.210;2022-08-19T03:19:22;442.07;;;126.33;;
1531;SDS011;759;53.170;8.210;2022-08-19T03:21:48;354.63;;;112.47;;
1531;SDS011;759;53.170;8.210;2022-08-19T03:24:15;284.57;;;94.60;;
1531;SDS011;759;53.170;8.210;2022-08-19T03:26:43;254.90;;;73.60;;
1531;SDS011;759;53.170;8.210;2022-08-19T03:29:10;235.70;;;79.13;;
1531;SDS011;759;53.170;8.210;2022-08-19T03:31:36;229.17;;;70.27;;
1531;SDS011;759;53.170;8.210;2022-08-19T03:34:04;271.60;;;71.50;;
1531;SDS011;759;53.170;8.210;2022-08-19T03:36:29;239.40;;;70.07;;
1531;SDS011;759;53.170;8.210;2022-08-19T03:38:56;299.03;;;76.37;;
1531;SDS011;759;53.170;8.210;2022-08-19T03:41:24;258.77;;;76.27;;
1531;SDS011;759;53.170;8.210;2022-08-19T03:43:52;285.23;;;76.53;;
1531;SDS011;759;53.170;8.210;2022-08-19T03:46:20;309.33;;;85.23;;
1531;SDS011;759;53.170;8.210;2022-08-19T03:48:50;378.47;;;90.97;;
1531;SDS011;759;53.170;8.210;2022-08-19T03:51:20;325.77;;;80.07;;
1531;SDS011;759;53.170;8.210;2022-08-19T03:53:51;258.93;;;71.40;;
1531;SDS011;759;53.170;8.210;2022-08-19T03:56:18;226.43;;;61.70;;
1531;SDS011;759;53.170;8.210;2022-08-19T03:58:44;210.57;;;56.77;;
1531;SDS011;759;53.170;8.210;2022-08-19T04:01:11;153.83;;;47.40;;
1531;SDS011;759;53.170;8.210;2022-08-19T04:03:39;127.00;;;45.00;;
1531;SDS011;759;53.170;8.210;2022-08-19T04:06:15;125.80;;;42.63;;
1531;SDS011;759;53.170;8.210;2022-08-19T04:08:44;112.87;;;36.70;;
1531;SDS011;759;53.170;8.210;2022-08-19T04:11:12;108.90;;;36.75;;
1531;SDS011;759;53.170;8.210;2022-08-19T04:13:41;108.60;;;34.90;;
1531;SDS011;759;53.170;8.210;2022-08-19T04:16:09;99.87;;;34.47;;
1531;SDS011;759;53.170;8.210;2022-08-19T04:18:35;84.55;;;32.95;;
1531;SDS011;759;53.170;8.210;2022-08-19T04:21:01;77.33;;;27.90;;
1531;SDS011;759;53.170;8.210;2022-08-19T04:23:27;78.53;;;27.33;;
1531;SDS011;759;53.170;8.210;2022-08-19T04:25:55;84.47;;;33.93;;
1531;SDS011;759;53.170;8.210;2022-08-19T04:28:21;96.10;;;30.30;;
1531;SDS011;759;53.170;8.210;2022-08-19T04:30:49;67.15;;;27.85;;
1531;SDS011;759;53.170;8.210;2022-08-19T04:33:19;71.47;;;28.20;;
1531;SDS011;759;53.170;8.210;2022-08-19T04:35:47;75.67;;;26.83;;
1531;SDS011;759;53.170;8.210;2022-08-19T04:38:14;52.80;;;23.33;;
1531;SDS011;759;53.170;8.210;2022-08-19T04:40:42;58.40;;;23.53;;
1531;SDS011;759;53.170;8.210;2022-08-19T04:43:30;71.93;;;25.20;;
1531;SDS011;759;53.170;8.210;2022-08-19T04:45:56;75.97;;;26.60;;
1531;SDS011;759;53.170;8.210;2022-08-19T04:48:22;61.43;;;24.50;;
1531;SDS011;759;53.170;8.210;2022-08-19T04:50:57;63.17;;;23.77;;
1531;SDS011;759;53.170;8.210;2022-08-19T04:53:24;53.50;;;23.90;;
1531;SDS011;759;53.170;8.210;2022-08-19T04:55:50;55.77;;;23.37;;
1531;SDS011;759;53.170;8.210;2022-08-19T04:58:16;62.60;;;24.53;;
1531;SDS011;759;53.170;8.210;2022-08-19T05:00:42;61.63;;;23.73;;
1531;SDS011;759;53.170;8.210;2022-08-19T05:03:08;60.53;;;24.17;;
1531;SDS011;759;53.170;8.210;2022-08-19T05:05:38;62.97;;;22.80;;
1531;SDS011;759;53.170;8.210;2022-08-19T05:08:05;46.47;;;20.80;;
1531;SDS011;759;53.170;8.210;2022-08-19T05:10:30;43.93;;;18.43;;
1531;SDS011;759;53.170;8.210;2022-08-19T05:12:56;60.30;;;22.73;;
1531;SDS011;759;53.170;8.210;2022-08-19T05:15:22;38.93;;;17.70;;
1531;SDS011;759;53.170;8.210;2022-08-19T05:17:48;36.53;;;16.30;;
1531;SDS011;759;53.170;8.210;2022-08-19T05:20:33;33.80;;;13.97;;
1531;SDS011;759;53.170;8.210;2022-08-19T05:23:17;23.70;;;12.13;;
1531;SDS011;759;53.170;8.210;2022-08-19T05:25:43;29.20;;;13.10;;
1531;SDS011;759;53.170;8.210;2022-08-19T05:28:09;24.27;;;12.30;;
1531;SDS011;759;53.170;8.210;2022-08-19T05:30:34;19.97;;;11.00;;
1531;SDS011;759;53.170;8.210;2022-08-19T05:33:00;16.93;;;10.10;;
1531;SDS011;759;53.170;8.210;2022-08-19T05:35:25;14.00;;;8.93;;
1531;SDS011;759;53.170;8.210;2022-08-19T05:37:51;17.43;;;10.30;;
1531;SDS011;759;53.170;8.210;2022-08-19T05:40:19;22.53;;;11.90;;
1531;SDS011;759;53.170;8.210;2022-08-19T05:42:45;23.93;;;12.40;;
1531;SDS011;759;53.170;8.210;2022-08-19T05:45:11;25.23;;;14.27;;
1531;SDS011;759;53.170;8.210;2022-08-19T05:47:42;22.15;;;12.35;;
1531;SDS011;759;53.170;8.210;2022-08-19T05:50:07;21.17;;;13.23;;
1531;SDS011;759;53.170;8.210;2022-08-19T05:52:33;30.80;;;15.03;;
1531;SDS011;759;53.170;8.210;2022-08-19T05:55:02;25.45;;;14.90;;
1531;SDS011;759;53.170;8.210;2022-08-19T05:57:28;32.03;;;14.73;;
1531;SDS011;759;53.170;8.210;2022-08-19T05:59:55;29.27;;;14.40;;
1531;SDS011;759;53.170;8.210;2022-08-19T06:02:22;23.87;;;13.07;;
1531;SDS011;759;53.170;8.210;2022-08-19T06:04:47;24.60;;;12.50;;
1531;SDS011;759;53.170;8.210;2022-08-19T06:07:13;17.23;;;10.10;;
1531;SDS011;759;53.170;8.210;2022-08-19T06:09:40;14.43;;;9.30;;
1531;SDS011;759;53.170;8.210;2022-08-19T06:12:06;14.73;;;9.53;;
1531;SDS011;759;53.170;8.210;2022-08-19T06:14:32;12.33;;;7.90;;
1531;SDS011;759;53.170;8.210;2022-08-19T06:16:59;11.10;;;7.07;;
1531;SDS011;759;53.170;8.210;2022-08-19T06:19:26;9.40;;;7.17;;
1531;SDS011;759;53.170;8.210;2022-08-19T06:21:57;8.33;;;6.70;;
1531;SDS011;759;53.170;8.210;2022-08-19T06:24:24;9.20;;;6.67;;
1531;SDS011;759;53.170;8.210;2022-08-19T06:26:52;9.03;;;7.43;;
1531;SDS011;759;53.170;8.210;2022-08-19T06:29:20;6.37;;;5.77;;
1531;SDS011;759;53.170;8.210;2022-08-19T06:31:50;6.45;;;5.00;;
1531;SDS011;759;53.170;8.210;2022-08-19T06:34:18;6.23;;;4.27;;
1531;SDS011;759;53.170;8.210;2022-08-19T06:36:46;4.50;;;3.73;;
1531;SDS011;759;53.170;8.210;2022-08-19T06:39:15;7.07;;;4.77;;
1531;SDS011;759;53.170;8.210;2022-08-19T06:41:47;4.60;;;4.20;;
1531;SDS011;759;53.170;8.210;2022-08-19T06:44:14;4.73;;;4.33;;
1531;SDS011;759;53.170;8.210;2022-08-19T06:46:40;4.33;;;3.20;;
1531;SDS011;759;53.170;8.210;2022-08-19T06:49:07;5.73;;;4.40;;
1531;SDS011;759;53.170;8.210;2022-08-19T06:51:35;3.53;;;3.20;;
1531;SDS011;759;53.170;8.210;2022-08-19T06:54:00;4.90;;;4.50;;
1531;SDS011;759;53.170;8.210;2022-08-19T06:56:28;4.90;;;3.90;;
1531;SDS011;759;53.170;8.210;2022-08-19T06:58:58;7.40;;;5.13;;
1531;SDS011;759;53.170;8.210;2022-08-19T07:01:25;4.37;;;4.07;;
1531;SDS011;759;53.170;8.210;2022-08-19T07:03:51;3.83;;;3.63;;
1531;SDS011;759;53.170;8.210;2022-08-19T07:06:17;3.23;;;3.03;;
1531;SDS011;759;53.170;8.210;2022-08-19T07:08:45;4.90;;;4.03;;
1531;SDS011;759;53.170;8.210;2022-08-19T07:11:13;5.90;;;3.73;;
1531;SDS011;759;53.170;8.210;2022-08-19T07:13:40;3.53;;;3.23;;
1531;SDS011;759;53.170;8.210;2022-08-19T07:16:09;4.70;;;4.37;;
1531;SDS011;759;53.170;8.210;2022-08-19T07:18:37;4.50;;;4.10;;
1531;SDS011;759;53.170;8.210;2022-08-19T07:21:07;3.97;;;3.50;;
1531;SDS011;759;53.170;8.210;2022-08-19T07:23:35;4.17;;;3.73;;
1531;SDS011;759;53.170;8.210;2022-08-19T07:26:15;4.43;;;4.03;;
1531;SDS011;759;53.170;8.210;2022-08-19T07:28:42;3.40;;;3.20;;
1531;SDS011;759;53.170;8.210;2022-08-19T07:31:27;3.20;;;2.90;;
1531;SDS011;759;53.170;8.210;2022-08-19T07:33:56;3.40;;;3.10;;
1531;SDS011;759;53.170;8.210;2022-08-19T07:36:43;3.57;;;3.27;;
1531;SDS011;759;53.170;8.210;2022-08-19T07:39:19;3.63;;;3.33;;
1531;SDS011;759;53.170;8.210;2022-08-19T07:41:58;3.07;;;2.67;;
1531;SDS011;759;53.170;8.210;2022-08-19T07:44:37;2.83;;;2.50;;
1531;SDS011;759;53.170;8.210;2022-08-19T07:47:06;2.80;;;2.60;;
1531;SDS011;759;53.170;8.210;2022-08-19T07:49:32;4.53;;;3.93;;
1531;SDS011;759;53.170;8.210;2022-08-19T07:52:05;3.70;;;2.60;;
1531;SDS011;759;53.170;8.210;2022-08-19T07:54:37;2.77;;;2.57;;
1531;SDS011;759;53.170;8.210;2022-08-19T07:57:06;2.73;;;2.50;;
1531;SDS011;759;53.170;8.210;2022-08-19T07:59:43;3.13;;;2.67;;
1531;SDS011;759;53.170;8.210;2022-08-19T08:02:21;3.27;;;2.83;;
1531;SDS011;759;53.170;8.210;2022-08-19T08:04:53;4.05;;;2.60;;
1531;SDS011;759;53.170;8.210;2022-08-19T08:08:03;8.23;;;2.93;;
1531;SDS011;759;53.170;8.210;2022-08-19T08:10:47;2.80;;;2.60;;
1531;SDS011;759;53.170;8.210;2022-08-19T08:13:24;3.33;;;3.03;;
1531;SDS011;759;53.170;8.210;2022-08-19T08:15:56;3.43;;;3.13;;
1531;SDS011;759;53.170;8.210;2022-08-19T08:18:22;4.75;;;3.25;;
1531;SDS011;759;53.170;8.210;2022-08-19T08:20:53;3.03;;;2.83;;
1531;SDS011;759;53.170;8.210;2022-08-19T08:23:29;2.83;;;2.40;;
1531;SDS011;759;53.170;8.210;2022-08-19T08:25:59;4.30;;;3.00;;
1531;SDS011;759;53.170;8.210;2022-08-19T08:28:27;3.93;;;3.53;;
1531;SDS011;759;53.170;8.210;2022-08-19T08:31:00;3.90;;;3.00;;
1531;SDS011;759;53.170;8.210;2022-08-19T08:33:28;3.40;;;2.90;;
1531;SDS011;759;53.170;8.210;2022-08-19T08:35:55;3.00;;;2.40;;
1531;SDS011;759;53.170;8.210;2022-08-19T08:38:21;3.40;;;2.70;;
1531;SDS011;759;53.170;8.210;2022-08-19T08:40:48;3.00;;;2.80;;
1531;SDS011;759;53.170;8.210;2022-08-19T08:43:26;3.97;;;3.57;;
1531;SDS011;759;53.170;8.210;2022-08-19T08:46:05;4.13;;;3.43;;
1531;SDS011;759;53.170;8.210;2022-08-19T08:48:45;3.17;;;2.83;;
1531;SDS011;759;53.170;8.210;2022-08-19T08:51:12;3.97;;;2.80;;
1531;SDS011;759;53.170;8.210;2022-08-19T08:53:43;2.90;;;2.57;;
1531;SDS011;759;53.170;8.210;2022-08-19T08:56:11;4.00;;;3.40;;
1531;SDS011;759;53.170;8.210;2022-08-19T08:59:00;3.90;;;3.60;;
1531;SDS011;759;53.170;8.210;2022-08-19T09:01:26;3.50;;;3.20;;
1531;SDS011;759;53.170;8.210;2022-08-19T09:03:53;2.87;;;2.67;;
1531;SDS011;759;53.170;8.210;2022-08-19T09:09:23;3.10;;;2.73;;
1531;SDS011;759;53.170;8.210;2022-08-19T09:12:06;2.80;;;2.60;;
1531;SDS011;759;53.170;8.210;2022-08-19T09:14:45;3.10;;;2.90;;
1531;SDS011;759;53.170;8.210;2022-08-19T09:17:20;3.50;;;3.23;;
1531;SDS011;759;53.170;8.210;2022-08-19T09:19:58;5.75;;;2.90;;
1531;SDS011;759;53.170;8.210;2022-08-19T09:22:32;3.37;;;2.80;;
1531;SDS011;759;53.170;8.210;2022-08-19T09:24:58;3.30;;;2.90;;
1531;SDS011;759;53.170;8.210;2022-08-19T09:27:25;4.73;;;3.00;;
1531;SDS011;759;53.170;8.210;2022-08-19T09:29:52;3.10;;;2.40;;
1531;SDS011;759;53.170;8.210;2022-08-19T09:32:19;2.75;;;2.55;;
1531;SDS011;759;53.170;8.210;2022-08-19T09:34:45;2.67;;;2.47;;
1531;SDS011;759;53.170;8.210;2022-08-19T09:37:11;3.17;;;2.97;;
1531;SDS011;759;53.170;8.210;2022-08-19T09:39:37;2.60;;;2.40;;
1531;SDS011;759;53.170;8.210;2022-08-19T09:42:04;3.15;;;2.80;;
1531;SDS011;759;53.170;8.210;2022-08-19T09:44:33;3.57;;;2.90;;
1531;SDS011;759;53.170;8.210;2022-08-19T09:46:59;4.43;;;2.50;;
1531;SDS011;759;53.170;8.210;2022-08-19T09:49:25;2.73;;;2.30;;
1531;SDS011;759;53.170;8.210;2022-08-19T09:51:51;1.90;;;1.80;;
1531;SDS011;759;53.170;8.210;2022-08-19T09:54:19;2.23;;;2.13;;
1531;SDS011;759;53.170;8.210;2022-08-19T09:56:44;2.80;;;2.07;;
1531;SDS011;759;53.170;8.210;2022-08-19T09:59:10;1.90;;;1.80;;
1531;SDS011;759;53.170;8.210;2022-08-19T10:01:37;2.67;;;2.43;;
1531;SDS011;759;53.170;8.210;2022-08-19T10:04:03;3.20;;;2.90;;
1531;SDS011;759;53.170;8.210;2022-08-19T10:06:33;2.30;;;2.20;;
1531;SDS011;759;53.170;8.210;2022-08-19T10:09:00;2.60;;;1.97;;
1531;SDS011;759;53.170;8.210;2022-08-19T10:11:29;2.25;;;2.15;;
1531;SDS011;759;53.170;8.210;2022-08-19T10:13:55;3.27;;;2.37;;
1531;SDS011;759;53.170;8.210;2022-08-19T10:16:21;2.40;;;2.10;;
1531;SDS011;759;53.170;8.210;2022-08-19T10:18:48;1.63;;;1.53;;
1531;SDS011;759;53.170;8.210;2022-08-19T10:21:22;4.10;;;2.70;;
1531;SDS011;759;53.170;8.210;2022-08-19T10:23:53;3.40;;;2.50;;
1531;SDS011;759;53.170;8.210;2022-08-19T10:26:23;3.30;;;2.70;;
1531;SDS011;759;53.170;8.210;2022-08-19T10:28:50;3.33;;;3.03;;
1531;SDS011;759;53.170;8.210;2022-08-19T10:31:18;2.90;;;2.70;;
1531;SDS011;759;53.170;8.210;2022-08-19T10:33:47;4.00;;;2.95;;
1531;SDS011;759;53.170;8.210;2022-08-19T10:36:15;2.40;;;2.30;;
1531;SDS011;759;53.170;8.210;2022-08-19T10:38:43;5.97;;;2.80;;
1531;SDS011;759;53.170;8.210;2022-08-19T10:41:14;3.17;;;2.90;;
1531;SDS011;759;53.170;8.210;2022-08-19T10:43:42;2.60;;;2.40;;
1531;SDS011;759;53.170;8.210;2022-08-19T10:46:11;2.67;;;2.40;;
1531;SDS011;759;53.170;8.210;2022-08-19T10:48:38;2.10;;;1.95;;
1531;SDS011;759;53.170;8.210;2022-08-19T10:51:04;3.37;;;2.40;;
1531;SDS011;759;53.170;8.210;2022-08-19T10:53:49;2.80;;;2.60;;
1531;SDS011;759;53.170;8.210;2022-08-19T10:56:15;2.23;;;2.13;;
1531;SDS011;759;53.170;8.210;2022-08-19T10:59:00;2.00;;;1.90;;
1531;SDS011;759;53.170;8.210;2022-08-19T11:01:27;2.57;;;2.37;;
1531;SDS011;759;53.170;8.210;2022-08-19T11:03:54;2.77;;;2.57;;
1531;SDS011;759;53.170;8.210;2022-08-19T11:06:22;2.53;;;2.33;;
1531;SDS011;759;53.170;8.210;2022-08-19T11:08:50;2.63;;;2.40;;
1531;SDS011;759;53.170;8.210;2022-08-19T11:11:16;2.10;;;1.90;;
1531;SDS011;759;53.170;8.210;2022-08-19T11:13:41;2.10;;;2.00;;
1531;SDS011;759;53.170;8.210;2022-08-19T11:18:36;3.83;;;2.13;;
1531;SDS011;759;53.170;8.210;2022-08-19T11:21:07;2.10;;;2.00;;
1531;SDS011;759;53.170;8.210;2022-08-19T11:23:35;5.50;;;2.30;;
1531;SDS011;759;53.170;8.210;2022-08-19T11:26:00;2.13;;;2.00;;
1531;SDS011;759;53.170;8.210;2022-08-19T11:28:26;2.53;;;2.33;;
1531;SDS011;759;53.170;8.210;2022-08-19T11:30:53;2.30;;;2.20;;
1531;SDS011;759;53.170;8.210;2022-08-19T11:33:18;2.07;;;1.97;;
1531;SDS011;759;53.170;8.210;2022-08-19T11:35:44;2.40;;;2.20;;
1531;SDS011;759;53.170;8.210;2022-08-19T11:38:10;2.60;;;2.40;;
1531;SDS011;759;53.170;8.210;2022-08-19T11:40:36;2.30;;;2.20;;
1531;SDS011;759;53.170;8.210;2022-08-19T11:43:01;3.50;;;2.70;;
1531;SDS011;759;53.170;8.210;2022-08-19T11:45:27;2.90;;;2.40;;
1531;SDS011;759;53.170;8.210;2022-08-19T11:47:54;2.87;;;2.53;;
1531;SDS011;759;53.170;8.210;2022-08-19T11:50:20;2.43;;;2.07;;
1531;SDS011;759;53.170;8.210;2022-08-19T11:52:46;2.27;;;2.07;;
1531;SDS011;759;53.170;8.210;2022-08-19T11:55:13;2.20;;;2.10;;
1531;SDS011;759;53.170;8.210;2022-08-19T11:57:39;3.40;;;2.80;;
1531;SDS011;759;53.170;8.210;2022-08-19T12:00:06;3.07;;;2.77;;
1531;SDS011;759;53.170;8.210;2022-08-19T12:02:32;4.37;;;2.50;;
1531;SDS011;759;53.170;8.210;2022-08-19T12:04:58;2.67;;;2.47;;
1531;SDS011;759;53.170;8.210;2022-08-19T12:07:27;2.40;;;2.30;;
1531;SDS011;759;53.170;8.210;2022-08-19T12:09:55;2.03;;;1.93;;
1531;SDS011;759;53.170;8.210;2022-08-19T12:12:21;3.30;;;3.00;;
1531;SDS011;759;53.170;8.210;2022-08-19T12:15:12;3.70;;;2.17;;
1531;SDS011;759;53.170;8.210;2022-08-19T12:17:48;3.43;;;2.50;;
1531;SDS011;759;53.170;8.210;2022-08-19T12:20:23;3.13;;;2.27;;
1531;SDS011;759;53.170;8.210;2022-08-19T12:22:57;2.65;;;2.45;;
1531;SDS011;759;53.170;8.210;2022-08-19T12:25:51;3.10;;;2.90;;
1531;SDS011;759;53.170;8.210;2022-08-19T12:28:25;4.70;;;2.27;;
1531;SDS011;759;53.170;8.210;2022-08-19T12:30:59;2.00;;;1.90;;
1531;SDS011;759;53.170;8.210;2022-08-19T12:33:42;2.00;;;1.90;;
1531;SDS011;759;53.170;8.210;2022-08-19T12:36:20;2.23;;;2.13;;
1531;SDS011;759;53.170;8.210;2022-08-19T12:38:50;2.63;;;2.40;;
1531;SDS011;759;53.170;8.210;2022-08-19T12:41:36;3.50;;;2.53;;
1531;SDS011;759;53.170;8.210;2022-08-19T12:44:15;2.17;;;2.07;;
1531;SDS011;759;53.170;8.210;2022-08-19T12:46:50;2.27;;;2.17;;
1531;SDS011;759;53.170;8.210;2022-08-19T12:49:22;2.73;;;2.53;;
1531;SDS011;759;53.170;8.210;2022-08-19T12:51:54;2.90;;;2.70;;
1531;SDS011;759;53.170;8.210;2022-08-19T12:54:26;2.90;;;2.60;;
1531;SDS011;759;53.170;8.210;2022-08-19T12:57:07;3.00;;;2.50;;
1531;SDS011;759;53.170;8.210;2022-08-19T12:59:40;2.63;;;2.43;;
1531;SDS011;759;53.170;8.210;2022-08-19T13:02:22;2.70;;;2.57;;
1531;SDS011;759;53.170;8.210;2022-08-19T13:04:51;4.43;;;2.80;;
1531;SDS011;759;53.170;8.210;2022-08-19T13:07:29;2.90;;;2.70;;
1531;SDS011;759;53.170;8.210;2022-08-19T13:10:09;3.10;;;2.90;;
1531;SDS011;759;53.170;8.210;2022-08-19T13:15:39;2.57;;;2.37;;
1531;SDS011;759;53.170;8.210;2022-08-19T13:18:29;3.00;;;2.80;;
1531;SDS011;759;53.170;8.210;2022-08-19T13:21:06;4.00;;;2.90;;
1531;SDS011;759;53.170;8.210;2022-08-19T13:24:13;2.77;;;2.40;;
1531;SDS011;759;53.170;8.210;2022-08-19T13:26:48;2.83;;;2.60;;
1531;SDS011;759;53.170;8.210;2022-08-19T13:29:26;2.63;;;2.53;;
1531;SDS011;759;53.170;8.210;2022-08-19T13:32:16;2.37;;;2.27;;
1531;SDS011;759;53.170;8.210;2022-08-19T13:37:56;2.70;;;2.50;;
1531;SDS011;759;53.170;8.210;2022-08-19T13:40:40;2.50;;;2.40;;
1531;SDS011;759;53.170;8.210;2022-08-19T13:45:55;2.70;;;2.50;;
1531;SDS011;759;53.170;8.210;2022-08-19T13:48:26;2.33;;;2.13;;
1531;SDS011;759;53.170;8.210;2022-08-19T13:51:05;2.87;;;2.57;;
1531;SDS011;759;53.170;8.210;2022-08-19T13:53:38;2.43;;;2.27;;
1531;SDS011;759;53.170;8.210;2022-08-19T13:56:22;2.37;;;2.27;;
1531;SDS011;759;53.170;8.210;2022-08-19T13:58:58;3.00;;;2.80;;
1531;SDS011;759;53.170;8.210;2022-08-19T14:01:27;2.50;;;2.30;;
1531;SDS011;759;53.170;8.210;2022-08-19T14:03:53;2.93;;;2.70;;
1531;SDS011;759;53.170;8.210;2022-08-19T14:06:53;2.87;;;2.67;;
1531;SDS011;759;53.170;8.210;2022-08-19T14:09:27;2.70;;;2.50;;
1531;SDS011;759;53.170;8.210;2022-08-19T14:11:53;3.90;;;3.60;;
1531;SDS011;759;53.170;8.210;2022-08-19T14:14:31;3.50;;;3.20;;
1531;SDS011;759;53.170;8.210;2022-08-19T14:16:57;2.77;;;2.57;;
1531;SDS011;759;53.170;8.210;2022-08-19T14:19:25;3.13;;;2.93;;
1531;SDS011;759;53.170;8.210;2022-08-19T14:21:58;3.27;;;3.07;;
1531;SDS011;759;53.170;8.210;2022-08-19T14:24:32;3.60;;;3.00;;
1531;SDS011;759;53.170;8.210;2022-08-19T14:26:58;3.00;;;2.63;;
1531;SDS011;759;53.170;8.210;2022-08-19T14:29:24;3.13;;;2.93;;
1531;SDS011;759;53.170;8.210;2022-08-19T14:31:54;3.57;;;3.30;;
1531;SDS011;759;53.170;8.210;2022-08-19T14:34:24;3.20;;;2.90;;
1531;SDS011;759;53.170;8.210;2022-08-19T14:36:53;4.13;;;2.67;;
1531;SDS011;759;53.170;8.210;2022-08-19T14:39:19;2.80;;;2.60;;
1531;SDS011;759;53.170;8.210;2022-08-19T14:41:44;3.00;;;2.80;;
1531;SDS011;759;53.170;8.210;2022-08-19T14:44:10;4.40;;;3.43;;
1531;SDS011;759;53.170;8.210;2022-08-19T14:46:37;3.00;;;2.80;;
1531;SDS011;759;53.170;8.210;2022-08-19T14:49:03;3.13;;;2.93;;
1531;SDS011;759;53.170;8.210;2022-08-19T14:51:29;2.80;;;2.60;;
1531;SDS011;759;53.170;8.210;2022-08-19T14:53:55;3.90;;;3.00;;
1531;SDS011;759;53.170;8.210;2022-08-19T14:56:22;3.77;;;3.43;;
1531;SDS011;759;53.170;8.210;2022-08-19T14:58:49;3.00;;;2.80;;
1531;SDS011;759;53.170;8.210;2022-08-19T15:01:18;4.40;;;3.47;;
1531;SDS011;759;53.170;8.210;2022-08-19T15:03:45;6.80;;;3.23;;
1531;SDS011;759;53.170;8.210;2022-08-19T15:06:12;3.10;;;2.90;;
1531;SDS011;759;53.170;8.210;2022-08-19T15:08:37;5.40;;;3.60;;
1531;SDS011;759;53.170;8.210;2022-08-19T15:11:07;3.40;;;3.10;;
1531;SDS011;759;53.170;8.210;2022-08-19T15:13:42;3.40;;;3.07;;
1531;SDS011;759;53.170;8.210;2022-08-19T15:16:09;3.90;;;3.60;;
1531;SDS011;759;53.170;8.210;2022-08-19T15:18:35;4.37;;;2.83;;
1531;SDS011;759;53.170;8.210;2022-08-19T15:21:02;3.50;;;3.20;;
1531;SDS011;759;53.170;8.210;2022-08-19T15:23:28;3.17;;;2.97;;
1531;SDS011;759;53.170;8.210;2022-08-19T15:25:55;3.60;;;3.30;;
1531;SDS011;759;53.170;8.210;2022-08-19T15:28:22;4.83;;;3.13;;
1531;SDS011;759;53.170;8.210;2022-08-19T15:30:48;4.07;;;3.77;;
1531;SDS011;759;53.170;8.210;2022-08-19T15:33:13;6.00;;;3.27;;
1531;SDS011;759;53.170;8.210;2022-08-19T15:35:39;4.17;;;3.87;;
1531;SDS011;759;53.170;8.210;2022-08-19T15:38:07;3.73;;;3.43;;
1531;SDS011;759;53.170;8.210;2022-08-19T15:40:33;4.03;;;3.70;;
1531;SDS011;759;53.170;8.210;2022-08-19T15:42:59;3.90;;;3.60;;
1531;SDS011;759;53.170;8.210;2022-08-19T15:45:25;5.17;;;4.77;;
1531;SDS011;759;53.170;8.210;2022-08-19T15:47:56;3.27;;;3.07;;
1531;SDS011;759;53.170;8.210;2022-08-19T15:50:22;4.70;;;4.30;;